sensor_id;sensor_type;location;lat;lon;timestamp;temperature;humidity
39503;DHT22;26970;49.900;10.774;2023-11-21T00:00:44;7.30;99.90
39503;DHT22;26970;49.900;10.774;2023-11-21T00:03:11;7.30;99.90
39503;DHT22;26970;49.900;10.774;2023-11-21T00:05:40;7.30;99.90
39503;DHT22;26970;49.900;10.774;2023-11-21T00:08:07;7.30;99.90
39503;DHT22;26970;49.900;10.774;2023-11-21T00:10:32;7.30;99.90
39503;DHT22;26970;49.900;10.774;2023-11-21T00:12:58;7.30;99.90
39503;DHT22;26970;49.900;10.774;2023-11-21T00:15:23;7.30;99.90
39503;DHT22;26970;49.900;10.774;2023-11-21T00:17:49;7.30;99.90
39503;DHT22;26970;49.900;10.774;2023-11-21T00:20:14;7.20;99.90
39503;DHT22;26970;49.900;10.774;2023-11-21T00:22:40;7.20;99.90
39503;DHT22;26970;49.900;10.774;2023-11-21T00:25:06;7.20;99.90
39503;DHT22;26970;49.900;10.774;2023-11-21T00:27:34;7.20;99.90
39503;DHT22;26970;49.900;10.774;2023-11-21T00:30:00;7.20;99.90
39503;DHT22;26970;49.900;10.774;2023-11-21T00:32:26;7.20;99.90
39503;DHT22;26970;49.900;10.774;2023-11-21T00:34:51;7.20;99.90
39503;DHT22;26970;49.900;10.774;2023-11-21T00:37:17;7.20;99.90
39503;DHT22;26970;49.900;10.774;2023-11-21T00:39:42;7.20;99.90
39503;DHT22;26970;49.900;10.774;2023-11-21T00:42:08;7.20;99.90
39503;DHT22;26970;49.900;10.774;2023-11-21T00:44:34;7.20;99.90
39503;DHT22;26970;49.900;10.774;2023-11-21T00:46:59;7.20;99.90
39503;DHT22;26970;49.900;10.774;2023-11-21T00:49:25;7.20;99.90
39503;DHT22;26970;49.900;10.774;2023-11-21T00:51:50;7.20;99.90
39503;DHT22;26970;49.900;10.774;2023-11-21T00:54:16;7.20;99.90
39503;DHT22;26970;49.900;10.774;2023-11-21T00:56:44;7.30;99.90
39503;DHT22;26970;49.900;10.774;2023-11-21T00:59:12;7.20;99.90
39503;DHT22;26970;49.900;10.774;2023-11-21T01:01:38;7.30;99.90
39503;DHT22;26970;49.900;10.774;2023-11-21T01:04:03;7.20;99.90
39503;DHT22;26970;49.900;10.774;2023-11-21T01:06:30;7.30;99.90
39503;DHT22;26970;49.900;10.774;2023-11-21T01:08:55;7.20;99.90
39503;DHT22;26970;49.900;10.774;2023-11-21T01:11:21;7.30;99.90
39503;DHT22;26970;49.900;10.774;2023-11-21T01:13:46;8.80;99.90
39503;DHT22;26970;49.900;10.774;2023-11-21T01:16:12;7.20;99.90
39503;DHT22;26970;49.900;10.774;2023-11-21T01:18:37;7.30;99.90
39503;DHT22;26970;49.900;10.774;2023-11-21T01:21:03;7.30;99.90
39503;DHT22;26970;49.900;10.774;2023-11-21T01:23:29;7.20;99.90
39503;DHT22;26970;49.900;10.774;2023-11-21T01:25:56;7.20;99.90
39503;DHT22;26970;49.900;10.774;2023-11-21T01:28:22;7.20;99.90
39503;DHT22;26970;49.900;10.774;2023-11-21T01:30:48;7.30;99.90
39503;DHT22;26970;49.900;10.774;2023-11-21T01:33:14;7.20;99.90
39503;DHT22;26970;49.900;10.774;2023-11-21T01:35:43;7.30;99.90
39503;DHT22;26970;49.900;10.774;2023-11-21T01:38:09;7.30;99.90
39503;DHT22;26970;49.900;10.774;2023-11-21T01:40:35;7.20;99.90
39503;DHT22;26970;49.900;10.774;2023-11-21T01:43:01;7.20;99.90
39503;DHT22;26970;49.900;10.774;2023-11-21T01:45:28;7.20;99.90
39503;DHT22;26970;49.900;10.774;2023-11-21T01:47:56;7.20;99.90
39503;DHT22;26970;49.900;10.774;2023-11-21T01:50:22;7.30;99.90
39503;DHT22;26970;49.900;10.774;2023-11-21T01:52:48;7.20;99.90
39503;DHT22;26970;49.900;10.774;2023-11-21T01:55:16;7.20;99.90
39503;DHT22;26970;49.900;10.774;2023-11-21T01:57:46;7.20;99.90
39503;DHT22;26970;49.900;10.774;2023-11-21T02:00:13;7.20;99.90
39503;DHT22;26970;49.900;10.774;2023-11-21T02:02:51;7.20;99.90
39503;DHT22;26970;49.900;10.774;2023-11-21T02:05:17;7.20;99.90
39503;DHT22;26970;49.900;10.774;2023-11-21T02:07:44;7.20;99.90
39503;DHT22;26970;49.900;10.774;2023-11-21T02:10:10;7.20;99.90
39503;DHT22;26970;49.900;10.774;2023-11-21T02:12:43;7.40;99.90
39503;DHT22;26970;49.900;10.774;2023-11-21T02:15:13;7.20;99.90
39503;DHT22;26970;49.900;10.774;2023-11-21T02:17:51;7.20;99.90
39503;DHT22;26970;49.900;10.774;2023-11-21T02:20:17;7.20;99.90
39503;DHT22;26970;49.900;10.774;2023-11-21T02:22:53;7.20;99.90
39503;DHT22;26970;49.900;10.774;2023-11-21T02:25:31;7.20;99.90
39503;DHT22;26970;49.900;10.774;2023-11-21T02:28:00;7.20;99.90
39503;DHT22;26970;49.900;10.774;2023-11-21T02:30:27;7.30;99.90
39503;DHT22;26970;49.900;10.774;2023-11-21T02:32:57;7.20;99.90
39503;DHT22;26970;49.900;10.774;2023-11-21T02:35:23;7.10;99.90
39503;DHT22;26970;49.900;10.774;2023-11-21T02:37:51;7.10;99.90
39503;DHT22;26970;49.900;10.774;2023-11-21T02:40:17;7.10;99.90
39503;DHT22;26970;49.900;10.774;2023-11-21T02:42:44;7.10;99.90
39503;DHT22;26970;49.900;10.774;2023-11-21T02:45:10;7.10;99.90
39503;DHT22;26970;49.900;10.774;2023-11-21T02:47:39;7.10;99.90
39503;DHT22;26970;49.900;10.774;2023-11-21T02:50:05;7.00;99.90
39503;DHT22;26970;49.900;10.774;2023-11-21T02:52:33;7.00;99.90
39503;DHT22;26970;49.900;10.774;2023-11-21T02:54:59;7.10;99.90
39503;DHT22;26970;49.900;10.774;2023-11-21T02:57:24;7.00;99.90
39503;DHT22;26970;49.900;10.774;2023-11-21T02:59:50;7.00;99.90
39503;DHT22;26970;49.900;10.774;2023-11-21T03:02:16;7.00;99.90
39503;DHT22;26970;49.900;10.774;2023-11-21T03:04:41;7.00;99.90
39503;DHT22;26970;49.900;10.774;2023-11-21T03:07:08;7.00;99.90
39503;DHT22;26970;49.900;10.774;2023-11-21T03:09:35;7.00;99.90
39503;DHT22;26970;49.900;10.774;2023-11-21T03:12:01;7.00;99.90
39503;DHT22;26970;49.900;10.774;2023-11-21T03:14:27;7.00;99.90
39503;DHT22;26970;49.900;10.774;2023-11-21T03:16:53;7.00;99.90
39503;DHT22;26970;49.900;10.774;2023-11-21T03:19:18;7.00;99.90
39503;DHT22;26970;49.900;10.774;2023-11-21T03:21:44;7.00;99.90
39503;DHT22;26970;49.900;10.774;2023-11-21T03:24:09;7.00;99.90
39503;DHT22;26970;49.900;10.774;2023-11-21T03:26:35;7.00;99.90
39503;DHT22;26970;49.900;10.774;2023-11-21T03:29:00;6.90;99.90
39503;DHT22;26970;49.900;10.774;2023-11-21T03:31:26;6.90;99.90
39503;DHT22;26970;49.900;10.774;2023-11-21T03:33:52;7.80;99.90
39503;DHT22;26970;49.900;10.774;2023-11-21T03:36:19;6.90;99.90
39503;DHT22;26970;49.900;10.774;2023-11-21T03:38:45;6.90;99.90
39503;DHT22;26970;49.900;10.774;2023-11-21T03:41:10;6.90;99.90
39503;DHT22;26970;49.900;10.774;2023-11-21T03:43:39;7.00;99.90
39503;DHT22;26970;49.900;10.774;2023-11-21T03:46:05;7.00;99.90
39503;DHT22;26970;49.900;10.774;2023-11-21T03:48:30;7.00;99.90
39503;DHT22;26970;49.900;10.774;2023-11-21T03:50:56;7.00;99.90
39503;DHT22;26970;49.900;10.774;2023-11-21T03:53:21;7.00;99.90
39503;DHT22;26970;49.900;10.774;2023-11-21T03:55:47;7.00;99.90
39503;DHT22;26970;49.900;10.774;2023-11-21T03:58:13;7.00;99.90
39503;DHT22;26970;49.900;10.774;2023-11-21T04:00:38;7.00;99.90
39503;DHT22;26970;49.900;10.774;2023-11-21T04:03:04;9.10;99.90
39503;DHT22;26970;49.900;10.774;2023-11-21T04:05:30;7.00;99.90
39503;DHT22;26970;49.900;10.774;2023-11-21T04:07:56;7.00;99.90
39503;DHT22;26970;49.900;10.774;2023-11-21T04:10:22;7.00;99.90
39503;DHT22;26970;49.900;10.774;2023-11-21T04:12:47;7.00;99.90
39503;DHT22;26970;49.900;10.774;2023-11-21T04:15:14;7.00;99.90
39503;DHT22;26970;49.900;10.774;2023-11-21T04:17:40;7.10;99.90
39503;DHT22;26970;49.900;10.774;2023-11-21T04:20:06;7.10;99.90
39503;DHT22;26970;49.900;10.774;2023-11-21T04:22:36;7.10;99.90
39503;DHT22;26970;49.900;10.774;2023-11-21T04:25:04;7.20;99.90
39503;DHT22;26970;49.900;10.774;2023-11-21T04:27:29;7.20;99.90
39503;DHT22;26970;49.900;10.774;2023-11-21T04:29:55;7.40;99.90
39503;DHT22;26970;49.900;10.774;2023-11-21T04:32:20;7.20;99.90
39503;DHT22;26970;49.900;10.774;2023-11-21T04:34:46;7.20;99.90
39503;DHT22;26970;49.900;10.774;2023-11-21T04:37:11;7.10;99.90
39503;DHT22;26970;49.900;10.774;2023-11-21T04:39:37;7.10;99.90
39503;DHT22;26970;49.900;10.774;2023-11-21T04:42:03;7.10;99.90
39503;DHT22;26970;49.900;10.774;2023-11-21T04:44:28;7.10;99.90
39503;DHT22;26970;49.900;10.774;2023-11-21T04:46:54;7.20;99.90
39503;DHT22;26970;49.900;10.774;2023-11-21T04:49:19;7.20;99.90
39503;DHT22;26970;49.900;10.774;2023-11-21T04:51:45;7.20;99.90
39503;DHT22;26970;49.900;10.774;2023-11-21T04:54:10;7.20;99.90
39503;DHT22;26970;49.900;10.774;2023-11-21T04:56:36;7.10;99.90
39503;DHT22;26970;49.900;10.774;2023-11-21T04:59:01;7.10;99.90
39503;DHT22;26970;49.900;10.774;2023-11-21T05:01:27;7.10;99.90
39503;DHT22;26970;49.900;10.774;2023-11-21T05:03:53;7.10;99.90
39503;DHT22;26970;49.900;10.774;2023-11-21T05:06:18;7.10;99.90
39503;DHT22;26970;49.900;10.774;2023-11-21T05:08:44;7.10;99.90
39503;DHT22;26970;49.900;10.774;2023-11-21T05:11:09;7.10;99.90
39503;DHT22;26970;49.900;10.774;2023-11-21T05:13:36;7.10;99.90
39503;DHT22;26970;49.900;10.774;2023-11-21T05:16:02;7.10;99.90
39503;DHT22;26970;49.900;10.774;2023-11-21T05:18:29;6.70;99.90
39503;DHT22;26970;49.900;10.774;2023-11-21T05:20:55;8.40;99.90
39503;DHT22;26970;49.900;10.774;2023-11-21T05:23:21;7.10;99.90
39503;DHT22;26970;49.900;10.774;2023-11-21T05:25:47;7.10;99.90
39503;DHT22;26970;49.900;10.774;2023-11-21T05:28:13;7.10;99.90
39503;DHT22;26970;49.900;10.774;2023-11-21T05:30:39;7.10;99.90
39503;DHT22;26970;49.900;10.774;2023-11-21T05:33:05;7.10;99.90
39503;DHT22;26970;49.900;10.774;2023-11-21T05:35:31;7.10;99.90
39503;DHT22;26970;49.900;10.774;2023-11-21T05:37:56;7.10;99.90
39503;DHT22;26970;49.900;10.774;2023-11-21T05:40:22;7.20;99.90
39503;DHT22;26970;49.900;10.774;2023-11-21T05:42:48;7.10;99.90
39503;DHT22;26970;49.900;10.774;2023-11-21T05:45:14;7.10;99.90
39503;DHT22;26970;49.900;10.774;2023-11-21T05:47:42;7.10;99.90
39503;DHT22;26970;49.900;10.774;2023-11-21T05:50:10;7.10;99.90
39503;DHT22;26970;49.900;10.774;2023-11-21T05:52:40;7.10;99.90
39503;DHT22;26970;49.900;10.774;2023-11-21T05:55:06;7.00;99.90
39503;DHT22;26970;49.900;10.774;2023-11-21T05:57:36;7.00;99.90
39503;DHT22;26970;49.900;10.774;2023-11-21T06:00:12;7.00;99.90
39503;DHT22;26970;49.900;10.774;2023-11-21T06:02:41;7.00;99.90
39503;DHT22;26970;49.900;10.774;2023-11-21T06:05:07;7.00;99.90
39503;DHT22;26970;49.900;10.774;2023-11-21T06:07:33;7.00;99.90
39503;DHT22;26970;49.900;10.774;2023-11-21T06:10:04;7.00;99.90
39503;DHT22;26970;49.900;10.774;2023-11-21T06:12:32;7.00;99.90
39503;DHT22;26970;49.900;10.774;2023-11-21T06:15:04;7.00;99.90
39503;DHT22;26970;49.900;10.774;2023-11-21T06:17:31;7.10;99.90
39503;DHT22;26970;49.900;10.774;2023-11-21T06:19:57;7.10;99.90
39503;DHT22;26970;49.900;10.774;2023-11-21T06:22:22;7.10;99.90
39503;DHT22;26970;49.900;10.774;2023-11-21T06:24:48;7.10;99.90
39503;DHT22;26970;49.900;10.774;2023-11-21T06:27:13;7.10;99.90
39503;DHT22;26970;49.900;10.774;2023-11-21T06:29:39;7.00;99.90
39503;DHT22;26970;49.900;10.774;2023-11-21T06:32:05;7.10;99.90
39503;DHT22;26970;49.900;10.774;2023-11-21T06:34:31;7.10;99.90
39503;DHT22;26970;49.900;10.774;2023-11-21T06:36:56;7.10;99.90
39503;DHT22;26970;49.900;10.774;2023-11-21T06:39:22;7.10;99.90
39503;DHT22;26970;49.900;10.774;2023-11-21T06:41:51;7.10;99.90
39503;DHT22;26970;49.900;10.774;2023-11-21T06:44:16;7.10;99.90
39503;DHT22;26970;49.900;10.774;2023-11-21T06:46:42;7.10;99.90
39503;DHT22;26970;49.900;10.774;2023-11-21T06:49:08;7.10;99.90
39503;DHT22;26970;49.900;10.774;2023-11-21T06:51:34;8.50;99.90
39503;DHT22;26970;49.900;10.774;2023-11-21T06:54:00;7.20;99.90
39503;DHT22;26970;49.900;10.774;2023-11-21T06:56:25;7.20;99.90
39503;DHT22;26970;49.900;10.774;2023-11-21T06:58:51;7.10;99.90
39503;DHT22;26970;49.900;10.774;2023-11-21T07:01:19;7.20;99.90
39503;DHT22;26970;49.900;10.774;2023-11-21T07:03:45;7.40;99.90
39503;DHT22;26970;49.900;10.774;2023-11-21T07:06:11;7.10;99.90
39503;DHT22;26970;49.900;10.774;2023-11-21T07:08:37;7.10;99.90
39503;DHT22;26970;49.900;10.774;2023-11-21T07:11:03;7.90;99.90
39503;DHT22;26970;49.900;10.774;2023-11-21T07:13:29;7.20;99.90
39503;DHT22;26970;49.900;10.774;2023-11-21T07:15:56;7.20;99.90
39503;DHT22;26970;49.900;10.774;2023-11-21T07:18:21;7.20;99.90
39503;DHT22;26970;49.900;10.774;2023-11-21T07:20:47;7.20;99.90
39503;DHT22;26970;49.900;10.774;2023-11-21T07:23:12;8.50;99.90
39503;DHT22;26970;49.900;10.774;2023-11-21T07:25:38;7.20;99.90
39503;DHT22;26970;49.900;10.774;2023-11-21T07:28:03;7.10;99.90
39503;DHT22;26970;49.900;10.774;2023-11-21T07:30:30;7.90;99.90
39503;DHT22;26970;49.900;10.774;2023-11-21T07:32:56;7.20;99.90
39503;DHT22;26970;49.900;10.774;2023-11-21T07:35:21;7.20;99.90
39503;DHT22;26970;49.900;10.774;2023-11-21T07:37:47;7.20;99.90
39503;DHT22;26970;49.900;10.774;2023-11-21T07:40:14;7.20;99.90
39503;DHT22;26970;49.900;10.774;2023-11-21T07:42:40;7.20;99.90
39503;DHT22;26970;49.900;10.774;2023-11-21T07:45:08;7.20;99.90
39503;DHT22;26970;49.900;10.774;2023-11-21T07:47:34;7.30;99.90
39503;DHT22;26970;49.900;10.774;2023-11-21T07:50:00;7.30;99.90
39503;DHT22;26970;49.900;10.774;2023-11-21T07:52:26;8.20;99.90
39503;DHT22;26970;49.900;10.774;2023-11-21T07:54:52;8.20;99.90
39503;DHT22;26970;49.900;10.774;2023-11-21T07:57:17;7.40;99.90
39503;DHT22;26970;49.900;10.774;2023-11-21T07:59:43;7.50;99.90
39503;DHT22;26970;49.900;10.774;2023-11-21T08:02:08;7.40;99.90
39503;DHT22;26970;49.900;10.774;2023-11-21T08:04:34;7.40;99.90
39503;DHT22;26970;49.900;10.774;2023-11-21T08:07:01;7.40;99.90
39503;DHT22;26970;49.900;10.774;2023-11-21T08:09:27;7.40;99.90
39503;DHT22;26970;49.900;10.774;2023-11-21T08:11:53;7.50;99.90
39503;DHT22;26970;49.900;10.774;2023-11-21T08:14:18;9.60;99.90
39503;DHT22;26970;49.900;10.774;2023-11-21T08:16:45;6.90;99.90
39503;DHT22;26970;49.900;10.774;2023-11-21T08:19:11;7.50;99.90
39503;DHT22;26970;49.900;10.774;2023-11-21T08:21:36;7.50;99.90
39503;DHT22;26970;49.900;10.774;2023-11-21T08:24:06;7.50;99.90
39503;DHT22;26970;49.900;10.774;2023-11-21T08:26:36;7.50;99.90
39503;DHT22;26970;49.900;10.774;2023-11-21T08:29:01;7.60;99.90
39503;DHT22;26970;49.900;10.774;2023-11-21T08:31:28;7.60;99.90
39503;DHT22;26970;49.900;10.774;2023-11-21T08:33:54;7.70;99.90
39503;DHT22;26970;49.900;10.774;2023-11-21T08:36:21;7.60;99.90
39503;DHT22;26970;49.900;10.774;2023-11-21T08:38:49;7.50;99.90
39503;DHT22;26970;49.900;10.774;2023-11-21T08:41:15;7.80;99.90
39503;DHT22;26970;49.900;10.774;2023-11-21T08:43:41;7.60;99.90
39503;DHT22;26970;49.900;10.774;2023-11-21T08:46:07;7.60;99.90
39503;DHT22;26970;49.900;10.774;2023-11-21T08:48:36;7.60;99.90
39503;DHT22;26970;49.900;10.774;2023-11-21T08:51:03;7.60;99.90
39503;DHT22;26970;49.900;10.774;2023-11-21T08:53:29;7.50;99.90
39503;DHT22;26970;49.900;10.774;2023-11-21T08:55:56;7.60;99.90
39503;DHT22;26970;49.900;10.774;2023-11-21T08:58:22;7.60;99.90
39503;DHT22;26970;49.900;10.774;2023-11-21T09:00:47;7.60;99.90
39503;DHT22;26970;49.900;10.774;2023-11-21T09:03:13;7.60;99.90
39503;DHT22;26970;49.900;10.774;2023-11-21T09:05:39;7.90;99.90
39503;DHT22;26970;49.900;10.774;2023-11-21T09:08:05;7.60;99.90
39503;DHT22;26970;49.900;10.774;2023-11-21T09:10:33;7.60;99.90
39503;DHT22;26970;49.900;10.774;2023-11-21T09:13:01;7.60;99.90
39503;DHT22;26970;49.900;10.774;2023-11-21T09:15:27;7.70;99.90
39503;DHT22;26970;49.900;10.774;2023-11-21T09:17:53;7.70;99.90
39503;DHT22;26970;49.900;10.774;2023-11-21T09:20:18;7.70;99.90
39503;DHT22;26970;49.900;10.774;2023-11-21T09:22:48;7.80;99.90
39503;DHT22;26970;49.900;10.774;2023-11-21T09:25:14;8.50;99.90
39503;DHT22;26970;49.900;10.774;2023-11-21T09:27:40;7.80;99.90
39503;DHT22;26970;49.900;10.774;2023-11-21T09:30:07;7.80;99.90
39503;DHT22;26970;49.900;10.774;2023-11-21T09:32:35;7.90;99.90
39503;DHT22;26970;49.900;10.774;2023-11-21T09:35:03;7.90;99.90
39503;DHT22;26970;49.900;10.774;2023-11-21T09:37:30;8.00;99.90
39503;DHT22;26970;49.900;10.774;2023-11-21T09:39:55;8.00;99.90
39503;DHT22;26970;49.900;10.774;2023-11-21T09:42:35;8.10;99.90
39503;DHT22;26970;49.900;10.774;2023-11-21T09:45:44;8.10;99.90
39503;DHT22;26970;49.900;10.774;2023-11-21T09:48:02;8.10;99.90
39503;DHT22;26970;49.900;10.774;2023-11-21T09:50:28;8.20;99.90
39503;DHT22;26970;49.900;10.774;2023-11-21T09:53:05;8.20;99.90
39503;DHT22;26970;49.900;10.774;2023-11-21T09:55:36;8.20;99.90
39503;DHT22;26970;49.900;10.774;2023-11-21T09:58:04;8.20;99.90
39503;DHT22;26970;49.900;10.774;2023-11-21T10:00:33;8.20;99.90
39503;DHT22;26970;49.900;10.774;2023-11-21T10:02:59;8.20;99.90
39503;DHT22;26970;49.900;10.774;2023-11-21T10:05:25;8.50;99.90
39503;DHT22;26970;49.900;10.774;2023-11-21T10:07:51;8.30;99.90
39503;DHT22;26970;49.900;10.774;2023-11-21T10:10:19;8.40;99.90
39503;DHT22;26970;49.900;10.774;2023-11-21T10:12:50;8.30;99.90
39503;DHT22;26970;49.900;10.774;2023-11-21T10:15:21;8.30;99.90
39503;DHT22;26970;49.900;10.774;2023-11-21T10:17:49;8.30;99.90
39503;DHT22;26970;49.900;10.774;2023-11-21T10:20:15;8.30;99.90
39503;DHT22;26970;49.900;10.774;2023-11-21T10:22:42;8.30;99.90
39503;DHT22;26970;49.900;10.774;2023-11-21T10:25:12;8.40;99.90
39503;DHT22;26970;49.900;10.774;2023-11-21T10:27:40;8.30;99.90
39503;DHT22;26970;49.900;10.774;2023-11-21T10:30:07;8.40;99.90
39503;DHT22;26970;49.900;10.774;2023-11-21T10:32:39;8.30;99.90
39503;DHT22;26970;49.900;10.774;2023-11-21T10:35:06;8.30;99.90
39503;DHT22;26970;49.900;10.774;2023-11-21T10:37:41;8.40;99.90
39503;DHT22;26970;49.900;10.774;2023-11-21T10:40:08;8.40;99.90
39503;DHT22;26970;49.900;10.774;2023-11-21T10:42:40;8.40;99.90
39503;DHT22;26970;49.900;10.774;2023-11-21T10:45:07;8.40;99.90
39503;DHT22;26970;49.900;10.774;2023-11-21T10:47:40;8.40;99.90
39503;DHT22;26970;49.900;10.774;2023-11-21T10:50:06;8.50;99.90
39503;DHT22;26970;49.900;10.774;2023-11-21T10:52:42;8.40;99.90
39503;DHT22;26970;49.900;10.774;2023-11-21T10:55:18;8.40;99.90
39503;DHT22;26970;49.900;10.774;2023-11-21T10:57:48;8.40;99.90
39503;DHT22;26970;49.900;10.774;2023-11-21T11:00:16;8.30;99.90
39503;DHT22;26970;49.900;10.774;2023-11-21T11:02:45;8.40;99.90
39503;DHT22;26970;49.900;10.774;2023-11-21T11:05:15;8.40;99.90
39503;DHT22;26970;49.900;10.774;2023-11-21T11:07:44;8.40;99.90
39503;DHT22;26970;49.900;10.774;2023-11-21T11:10:14;8.60;99.90
39503;DHT22;26970;49.900;10.774;2023-11-21T11:12:43;8.70;99.90
39503;DHT22;26970;49.900;10.774;2023-11-21T11:15:11;8.80;99.90
39503;DHT22;26970;49.900;10.774;2023-11-21T11:17:37;10.90;99.90
39503;DHT22;26970;49.900;10.774;2023-11-21T11:20:08;9.00;99.90
39503;DHT22;26970;49.900;10.774;2023-11-21T11:23:11;9.00;99.90
39503;DHT22;26970;49.900;10.774;2023-11-21T11:26:12;9.00;99.90
39503;DHT22;26970;49.900;10.774;2023-11-21T11:34:33;9.10;99.90
39503;DHT22;26970;49.900;10.774;2023-11-21T11:37:02;9.10;99.90
39503;DHT22;26970;49.900;10.774;2023-11-21T11:42:03;8.90;99.90
39503;DHT22;26970;49.900;10.774;2023-11-21T11:47:25;9.30;99.90
39503;DHT22;26970;49.900;10.774;2023-11-21T11:50:00;9.00;99.90
39503;DHT22;26970;49.900;10.774;2023-11-21T11:55:03;9.10;99.90
39503;DHT22;26970;49.900;10.774;2023-11-21T11:57:32;9.00;99.90
39503;DHT22;26970;49.900;10.774;2023-11-21T12:00:21;9.10;99.90
39503;DHT22;26970;49.900;10.774;2023-11-21T12:03:03;9.10;99.90
39503;DHT22;26970;49.900;10.774;2023-11-21T12:05:31;11.30;99.90
39503;DHT22;26970;49.900;10.774;2023-11-21T12:08:00;9.50;99.90
39503;DHT22;26970;49.900;10.774;2023-11-21T12:10:28;9.50;99.90
39503;DHT22;26970;49.900;10.774;2023-11-21T12:12:55;9.70;99.90
39503;DHT22;26970;49.900;10.774;2023-11-21T12:15:22;9.80;99.90
39503;DHT22;26970;49.900;10.774;2023-11-21T12:17:49;9.80;99.90
39503;DHT22;26970;49.900;10.774;2023-11-21T12:20:18;9.90;99.90
39503;DHT22;26970;49.900;10.774;2023-11-21T12:22:46;9.90;99.90
39503;DHT22;26970;49.900;10.774;2023-11-21T12:25:19;9.90;99.90
39503;DHT22;26970;49.900;10.774;2023-11-21T12:27:46;10.00;99.90
39503;DHT22;26970;49.900;10.774;2023-11-21T12:30:13;10.10;99.90
39503;DHT22;26970;49.900;10.774;2023-11-21T12:32:43;10.00;99.90
39503;DHT22;26970;49.900;10.774;2023-11-21T12:35:09;10.10;99.90
39503;DHT22;26970;49.900;10.774;2023-11-21T12:37:41;10.00;99.90
39503;DHT22;26970;49.900;10.774;2023-11-21T12:40:10;9.90;99.90
39503;DHT22;26970;49.900;10.774;2023-11-21T12:43:07;9.90;99.90
39503;DHT22;26970;49.900;10.774;2023-11-21T12:45:33;11.10;99.90
39503;DHT22;26970;49.900;10.774;2023-11-21T12:48:00;9.80;99.90
39503;DHT22;26970;49.900;10.774;2023-11-21T12:50:30;9.70;99.90
39503;DHT22;26970;49.900;10.774;2023-11-21T12:53:15;9.80;99.90
39503;DHT22;26970;49.900;10.774;2023-11-21T12:55:44;9.80;99.90
39503;DHT22;26970;49.900;10.774;2023-11-21T12:58:15;9.80;99.90
39503;DHT22;26970;49.900;10.774;2023-11-21T13:00:48;9.80;99.90
39503;DHT22;26970;49.900;10.774;2023-11-21T13:03:15;9.90;99.90
39503;DHT22;26970;49.900;10.774;2023-11-21T13:05:44;9.70;99.90
39503;DHT22;26970;49.900;10.774;2023-11-21T13:08:11;9.70;99.90
39503;DHT22;26970;49.900;10.774;2023-11-21T13:10:40;9.70;99.90
39503;DHT22;26970;49.900;10.774;2023-11-21T13:13:08;9.60;99.90
39503;DHT22;26970;49.900;10.774;2023-11-21T13:15:46;9.60;99.90
39503;DHT22;26970;49.900;10.774;2023-11-21T13:18:12;9.60;99.90
39503;DHT22;26970;49.900;10.774;2023-11-21T13:20:38;9.60;99.90
39503;DHT22;26970;49.900;10.774;2023-11-21T13:23:07;9.50;99.90
39503;DHT22;26970;49.900;10.774;2023-11-21T13:25:33;9.50;99.90
39503;DHT22;26970;49.900;10.774;2023-11-21T13:27:59;9.50;99.90
39503;DHT22;26970;49.900;10.774;2023-11-21T13:30:28;9.50;99.90
39503;DHT22;26970;49.900;10.774;2023-11-21T13:33:03;9.60;99.90
39503;DHT22;26970;49.900;10.774;2023-11-21T13:35:36;9.50;99.90
39503;DHT22;26970;49.900;10.774;2023-11-21T13:38:10;9.50;99.90
39503;DHT22;26970;49.900;10.774;2023-11-21T13:40:37;9.50;99.90
39503;DHT22;26970;49.900;10.774;2023-11-21T13:43:12;9.60;99.90
39503;DHT22;26970;49.900;10.774;2023-11-21T13:45:41;9.70;99.90
39503;DHT22;26970;49.900;10.774;2023-11-21T13:48:07;9.40;99.90
39503;DHT22;26970;49.900;10.774;2023-11-21T13:50:45;10.00;99.90
39503;DHT22;26970;49.900;10.774;2023-11-21T13:53:21;9.30;99.90
39503;DHT22;26970;49.900;10.774;2023-11-21T13:55:53;9.30;99.90
39503;DHT22;26970;49.900;10.774;2023-11-21T13:58:20;9.20;99.90
39503;DHT22;26970;49.900;10.774;2023-11-21T14:00:54;9.20;99.90
39503;DHT22;26970;49.900;10.774;2023-11-21T14:03:25;9.50;99.90
39503;DHT22;26970;49.900;10.774;2023-11-21T14:06:03;9.20;99.90
39503;DHT22;26970;49.900;10.774;2023-11-21T14:08:34;9.20;99.90
39503;DHT22;26970;49.900;10.774;2023-11-21T14:11:00;9.20;99.90
39503;DHT22;26970;49.900;10.774;2023-11-21T14:13:26;9.10;99.90
39503;DHT22;26970;49.900;10.774;2023-11-21T14:15:53;9.00;99.90
39503;DHT22;26970;49.900;10.774;2023-11-21T14:18:28;9.00;99.90
39503;DHT22;26970;49.900;10.774;2023-11-21T14:21:06;8.90;99.90
39503;DHT22;26970;49.900;10.774;2023-11-21T14:23:33;9.00;99.90
39503;DHT22;26970;49.900;10.774;2023-11-21T14:26:01;9.10;99.90
39503;DHT22;26970;49.900;10.774;2023-11-21T14:28:27;8.90;99.90
39503;DHT22;26970;49.900;10.774;2023-11-21T14:30:52;8.80;99.90
39503;DHT22;26970;49.900;10.774;2023-11-21T14:33:18;8.90;99.90
39503;DHT22;26970;49.900;10.774;2023-11-21T14:35:44;8.80;99.90
39503;DHT22;26970;49.900;10.774;2023-11-21T14:38:10;8.80;99.90
39503;DHT22;26970;49.900;10.774;2023-11-21T14:40:36;8.80;99.90
39503;DHT22;26970;49.900;10.774;2023-11-21T14:43:02;8.80;99.90
39503;DHT22;26970;49.900;10.774;2023-11-21T14:45:32;8.70;99.90
39503;DHT22;26970;49.900;10.774;2023-11-21T14:47:58;8.70;99.90
39503;DHT22;26970;49.900;10.774;2023-11-21T14:50:46;8.70;99.90
39503;DHT22;26970;49.900;10.774;2023-11-21T14:53:26;8.70;99.90
39503;DHT22;26970;49.900;10.774;2023-11-21T14:56:21;8.60;99.90
39503;DHT22;26970;49.900;10.774;2023-11-21T14:58:56;8.60;99.90
39503;DHT22;26970;49.900;10.774;2023-11-21T15:01:25;8.60;99.90
39503;DHT22;26970;49.900;10.774;2023-11-21T15:04:10;8.60;99.90
39503;DHT22;26970;49.900;10.774;2023-11-21T15:06:49;10.70;99.90
39503;DHT22;26970;49.900;10.774;2023-11-21T15:09:16;8.80;99.90
39503;DHT22;26970;49.900;10.774;2023-11-21T15:11:57;8.50;99.90
39503;DHT22;26970;49.900;10.774;2023-11-21T15:14:29;8.50;99.90
39503;DHT22;26970;49.900;10.774;2023-11-21T15:17:00;8.40;99.90
39503;DHT22;26970;49.900;10.774;2023-11-21T15:19:26;8.40;99.90
39503;DHT22;26970;49.900;10.774;2023-11-21T15:21:53;8.50;99.90
39503;DHT22;26970;49.900;10.774;2023-11-21T15:24:19;8.40;99.90
39503;DHT22;26970;49.900;10.774;2023-11-21T15:26:44;8.40;99.90
39503;DHT22;26970;49.900;10.774;2023-11-21T15:29:10;8.30;99.90
39503;DHT22;26970;49.900;10.774;2023-11-21T15:31:36;8.30;99.90
39503;DHT22;26970;49.900;10.774;2023-11-21T15:34:03;8.30;99.90
39503;DHT22;26970;49.900;10.774;2023-11-21T15:36:30;8.30;99.90
39503;DHT22;26970;49.900;10.774;2023-11-21T15:38:56;8.30;99.90
39503;DHT22;26970;49.900;10.774;2023-11-21T15:41:21;8.30;99.90
39503;DHT22;26970;49.900;10.774;2023-11-21T15:43:47;8.30;99.90
39503;DHT22;26970;49.900;10.774;2023-11-21T15:46:15;8.20;99.90
39503;DHT22;26970;49.900;10.774;2023-11-21T15:48:40;8.20;99.90